Time;durP1;ratioP1;P1;durP2;ratioP2;P2;SDS_P1;SDS_P2;PMS_P1;PMS_P2;Temp;Humidity;BMP_temperature;BMP_pressure;BME280_temperature;BME280_humidity;BME280_pressure;Samples;Min_cycle;Max_cycle;Signal;HPM_P1;HPM_P2
2021/07/10 00:00:35;;;;;;;16.25;11.48;;;17.10;99.90;;;;;;1819366;78;21032;-71
2021/07/10 00:03:03;;;;;;;19.37;12.10;;;17.10;99.90;;;;;;1823147;77;21187;-72
2021/07/10 00:05:31;;;;;;;14.07;11.57;;;17.00;99.90;;;;;;1824777;78;21074;-73
2021/07/10 00:07:58;;;;;;;16.30;11.43;;;17.00;99.90;;;;;;1820050;77;21736;-72
2021/07/10 00:10:26;;;;;;;17.30;11.73;;;17.00;99.90;;;;;;1822864;77;21568;-73
2021/07/10 00:12:54;;;;;;;16.45;11.60;;;16.90;99.90;;;;;;1831165;77;21139;-71
2021/07/10 00:15:24;;;;;;;15.43;11.28;;;17.00;99.90;;;;;;1817315;78;21063;-71
2021/07/10 00:17:52;;;;;;;15.95;11.12;;;17.00;99.90;;;;;;1804921;78;21175;-71
2021/07/10 00:20:22;;;;;;;17.37;11.90;;;16.90;99.90;;;;;;1824440;78;22191;-72
2021/07/10 00:22:50;;;;;;;22.37;12.30;;;16.90;99.90;;;;;;1805383;77;21195;-72
2021/07/10 00:25:19;;;;;;;18.87;12.63;;;16.90;99.90;;;;;;1818838;77;21093;-71
2021/07/10 00:27:48;;;;;;;17.15;12.07;;;17.00;99.90;;;;;;1819902;78;21079;-71
2021/07/10 00:30:17;;;;;;;16.10;12.28;;;16.90;99.90;;;;;;1822345;78;21004;-72
2021/07/10 00:32:46;;;;;;;21.65;12.70;;;17.00;99.90;;;;;;1813453;77;21140;-72
2021/07/10 00:35:13;;;;;;;20.90;12.47;;;16.90;99.90;;;;;;1811602;77;21023;-72
2021/07/10 00:37:41;;;;;;;17.73;12.75;;;16.90;99.90;;;;;;1825291;77;21047;-73
2021/07/10 00:40:10;;;;;;;20.43;13.32;;;16.90;99.90;;;;;;1802795;77;21045;-71
2021/07/10 00:42:39;;;;;;;18.60;12.40;;;16.90;99.90;;;;;;1825273;77;22149;-71
2021/07/10 00:45:09;;;;;;;19.52;12.13;;;16.80;99.90;;;;;;1824585;77;21130;-72
2021/07/10 00:47:37;;;;;;;18.42;12.93;;;16.70;99.90;;;;;;1825721;78;21117;-73
2021/07/10 00:50:10;;;;;;;22.30;12.78;;;16.70;99.90;;;;;;1813219;77;21192;-72
2021/07/10 00:52:38;;;;;;;17.55;12.82;;;16.70;99.90;;;;;;1820080;78;21137;-71
2021/07/10 00:55:07;;;;;;;20.12;13.85;;;16.70;99.90;;;;;;1821048;78;21054;-72
2021/07/10 00:57:36;;;;;;;16.07;12.58;;;16.70;99.90;;;;;;1823947;78;21647;-73
2021/07/10 01:00:09;;;;;;;16.67;12.40;;;16.70;99.90;;;;;;1823997;77;21063;-71
2021/07/10 01:02:38;;;;;;;15.68;12.00;;;16.70;99.90;;;;;;1823292;78;21060;-71
2021/07/10 01:05:09;;;;;;;16.27;12.28;;;16.70;99.90;;;;;;1824873;77;21102;-71
2021/07/10 01:07:36;;;;;;;19.37;12.15;;;16.70;99.90;;;;;;1824629;77;21059;-71
2021/07/10 01:10:04;;;;;;;17.35;11.57;;;16.60;99.90;;;;;;1855853;76;22722;-71
2021/07/10 01:12:33;;;;;;;15.90;11.35;;;16.60;99.90;;;;;;1855469;76;21171;-72
2021/07/10 01:15:01;;;;;;;17.57;11.45;;;16.70;99.90;;;;;;1856017;76;21662;-72
2021/07/10 01:17:28;;;;;;;16.87;12.28;;;16.60;99.90;;;;;;1856477;76;22131;-71
2021/07/10 01:20:01;;;;;;;18.00;12.10;;;16.50;99.90;;;;;;1856350;76;21093;-71
2021/07/10 01:22:29;;;;;;;15.78;11.75;;;16.50;99.90;;;;;;1851040;76;21575;-73
2021/07/10 01:24:57;;;;;;;16.82;12.15;;;16.50;99.90;;;;;;1856521;76;21117;-71
2021/07/10 01:27:24;;;;;;;19.85;13.15;;;16.50;99.90;;;;;;1856609;76;21109;-71
2021/07/10 01:29:54;;;;;;;18.65;13.50;;;16.50;99.90;;;;;;1856757;75;21101;-71
2021/07/10 01:32:21;;;;;;;20.65;14.23;;;16.50;99.90;;;;;;1856854;76;21117;-72
2021/07/10 01:34:50;;;;;;;24.82;14.20;;;16.40;99.90;;;;;;1856956;76;21112;-71
2021/07/10 01:37:18;;;;;;;21.87;13.70;;;16.30;99.90;;;;;;1856594;76;21672;-71
2021/07/10 01:39:46;;;;;;;24.75;14.50;;;16.30;99.90;;;;;;1855359;76;21179;-71
2021/07/10 01:42:13;;;;;;;19.20;13.68;;;16.40;99.90;;;;;;1856193;76;21112;-72
2021/07/10 01:44:41;;;;;;;20.60;13.35;;;16.30;99.90;;;;;;1841541;76;21054;-72
2021/07/10 01:47:09;;;;;;;20.95;13.53;;;16.20;99.90;;;;;;1874976;72;21133;-71
2021/07/10 01:49:36;;;;;;;20.80;13.15;;;16.20;99.90;;;;;;1894953;74;21163;-72
2021/07/10 01:52:04;;;;;;;16.55;13.22;;;16.20;99.90;;;;;;1889167;74;21100;-71
2021/07/10 01:54:32;;;;;;;21.02;14.00;;;16.20;99.90;;;;;;1900349;74;21118;-70
2021/07/10 01:56:59;;;;;;;21.90;13.83;;;16.10;99.90;;;;;;1892985;74;21137;-71
2021/07/10 01:59:27;;;;;;;21.97;14.70;;;16.10;99.90;;;;;;1889550;75;21151;-70
2021/07/10 02:01:54;;;;;;;20.00;14.65;;;16.20;99.90;;;;;;1891385;75;21089;-71
2021/07/10 02:04:22;;;;;;;23.52;14.55;;;16.10;99.90;;;;;;1886787;75;22144;-70
2021/07/10 02:06:50;;;;;;;19.77;14.50;;;16.10;99.90;;;;;;1846046;75;22408;-71
2021/07/10 02:09:17;;;;;;;17.27;14.40;;;16.10;99.90;;;;;;1878387;75;21140;-70
2021/07/10 02:11:49;;;;;;;20.23;13.93;;;16.20;99.90;;;;;;1890134;75;21096;-71
2021/07/10 02:14:18;;;;;;;21.30;14.93;;;16.20;99.90;;;;;;1874425;75;21720;-69
2021/07/10 02:16:48;;;;;;;19.48;14.80;;;16.20;99.90;;;;;;1872315;75;21144;-69
2021/07/10 02:19:16;;;;;;;21.40;14.65;;;16.10;99.90;;;;;;1890205;75;21191;-70
2021/07/10 02:21:43;;;;;;;29.12;15.40;;;16.20;99.90;;;;;;1894048;75;21547;-69
2021/07/10 02:24:11;;;;;;;22.32;15.20;;;16.10;99.90;;;;;;1866596;75;21041;-70
2021/07/10 02:26:38;;;;;;;19.85;14.80;;;16.20;99.90;;;;;;1887889;74;21571;-70
2021/07/10 02:29:07;;;;;;;23.83;16.52;;;16.10;99.90;;;;;;1880435;75;21618;-70
2021/07/10 02:31:36;;;;;;;26.73;15.45;;;16.10;99.90;;;;;;1882077;75;21033;-70
2021/07/10 02:34:04;;;;;;;20.77;16.40;;;16.10;99.90;;;;;;1895843;76;21059;-70
2021/07/10 02:36:32;;;;;;;20.65;15.23;;;16.20;99.90;;;;;;1872767;75;21121;-70
2021/07/10 02:39:00;;;;;;;23.70;15.80;;;16.10;99.90;;;;;;1876281;75;21707;-69
2021/07/10 02:41:28;;;;;;;20.85;14.75;;;16.00;99.90;;;;;;1868041;75;21221;-70
2021/07/10 02:43:55;;;;;;;23.75;16.00;;;16.10;99.90;;;;;;1895205;76;21045;-70
2021/07/10 02:46:23;;;;;;;20.82;15.38;;;16.10;99.90;;;;;;1878650;75;21145;-70
2021/07/10 02:48:50;;;;;;;19.05;14.75;;;15.90;99.90;;;;;;1890110;75;21100;-71
2021/07/10 02:51:18;;;;;;;23.02;15.45;;;15.90;99.90;;;;;;1879704;75;21358;-70
2021/07/10 02:53:45;;;;;;;24.07;15.28;;;15.90;99.90;;;;;;1869328;75;21034;-70
2021/07/10 02:56:13;;;;;;;22.32;15.28;;;15.90;99.90;;;;;;1892985;74;21167;-70
2021/07/10 02:58:40;;;;;;;22.55;14.90;;;15.90;99.90;;;;;;1882111;75;21178;-71
2021/07/10 03:01:08;;;;;;;25.97;15.80;;;15.80;99.90;;;;;;1862580;77;21218;-69
2021/07/10 03:03:35;;;;;;;22.17;15.70;;;15.80;99.90;;;;;;1884209;75;21160;-70
2021/07/10 03:06:03;;;;;;;27.00;15.75;;;15.80;99.90;;;;;;1893188;74;21097;-70
2021/07/10 03:08:31;;;;;;;23.18;15.55;;;15.70;99.90;;;;;;1875715;75;21116;-69
2021/07/10 03:10:58;;;;;;;22.77;15.50;;;15.70;99.90;;;;;;1893840;75;21089;-70
2021/07/10 03:13:26;;;;;;;18.00;15.25;;;15.70;99.90;;;;;;1871366;75;21191;-70
2021/07/10 03:15:54;;;;;;;19.85;14.10;;;15.70;99.90;;;;;;1852398;75;21559;-70
2021/07/10 03:18:21;;;;;;;24.23;13.95;;;15.60;99.90;;;;;;1871750;75;21154;-71
2021/07/10 03:20:49;;;;;;;21.35;14.68;;;15.70;99.90;;;;;;1863021;77;21110;-69
2021/07/10 03:23:16;;;;;;;24.70;15.70;;;15.70;99.90;;;;;;1863158;75;21503;-71
2021/07/10 03:25:44;;;;;;;22.15;15.05;;;15.70;99.90;;;;;;1862774;75;21065;-69
2021/07/10 03:28:11;;;;;;;22.40;14.85;;;15.70;99.90;;;;;;1884031;75;21109;-69
2021/07/10 03:30:39;;;;;;;22.77;14.33;;;15.60;99.90;;;;;;1889596;75;21164;-69
2021/07/10 03:33:07;;;;;;;17.35;13.72;;;15.80;99.90;;;;;;1862920;75;21179;-69
2021/07/10 03:35:34;;;;;;;28.38;14.90;;;15.70;99.90;;;;;;1891989;75;21096;-70
2021/07/10 03:38:02;;;;;;;21.23;14.33;;;15.70;99.90;;;;;;1873987;74;21131;-69
2021/07/10 03:40:30;;;;;;;19.25;14.65;;;15.90;99.90;;;;;;1876541;75;21169;-70
2021/07/10 03:42:57;;;;;;;18.80;13.38;;;15.80;99.90;;;;;;1866998;75;21132;-70
2021/07/10 03:45:25;;;;;;;20.75;15.13;;;15.80;99.90;;;;;;1894931;76;21117;-70
2021/07/10 03:47:53;;;;;;;18.73;14.87;;;15.70;99.90;;;;;;1892375;74;21145;-70
2021/07/10 03:50:21;;;;;;;17.52;15.05;;;15.80;99.90;;;;;;1862553;75;21203;-72
2021/07/10 03:52:49;;;;;;;21.23;14.68;;;15.80;99.90;;;;;;1871713;75;21112;-72
2021/07/10 03:55:17;;;;;;;20.37;14.45;;;15.70;99.90;;;;;;1868773;77;21146;-71
2021/07/10 03:57:45;;;;;;;23.77;15.55;;;15.80;99.90;;;;;;1876551;75;21101;-71
2021/07/10 04:00:15;;;;;;;20.35;14.58;;;15.90;99.90;;;;;;1867768;75;21018;-71
2021/07/10 04:02:43;;;;;;;19.42;14.73;;;15.90;99.90;;;;;;1879855;75;21019;-71
2021/07/10 04:05:12;;;;;;;22.25;14.60;;;15.80;99.90;;;;;;1877162;75;21053;-70
2021/07/10 04:07:40;;;;;;;18.40;14.70;;;15.90;99.90;;;;;;1866045;75;21089;-71
2021/07/10 04:10:10;;;;;;;18.82;14.68;;;15.90;99.90;;;;;;1853756;75;21144;-71
2021/07/10 04:12:38;;;;;;;24.80;14.68;;;16.10;99.90;;;;;;1875143;75;21055;-71
2021/07/10 04:15:06;;;;;;;18.02;14.28;;;16.20;99.90;;;;;;1870630;75;21039;-71
2021/07/10 04:17:34;;;;;;;19.15;14.47;;;16.20;99.90;;;;;;1858018;75;21645;-71
2021/07/10 04:20:02;;;;;;;21.02;14.50;;;16.10;99.90;;;;;;1896251;75;21571;-71
2021/07/10 04:22:29;;;;;;;19.82;14.98;;;16.10;99.90;;;;;;1862625;77;21183;-71
2021/07/10 04:24:57;;;;;;;22.20;15.32;;;16.00;99.90;;;;;;1862062;75;21141;-71
2021/07/10 04:27:25;;;;;;;24.40;16.25;;;15.90;99.90;;;;;;1883262;74;21222;-71
2021/07/10 04:29:52;;;;;;;21.82;16.23;;;16.00;99.90;;;;;;1887116;75;21135;-73
2021/07/10 04:32:20;;;;;;;21.17;16.32;;;16.20;99.90;;;;;;1862199;75;21128;-72
2021/07/10 04:34:47;;;;;;;23.10;16.93;;;16.30;99.90;;;;;;1875148;75;21865;-72
2021/07/10 04:37:15;;;;;;;22.67;16.60;;;16.20;99.90;;;;;;1888065;74;21163;-71
2021/07/10 04:39:42;;;;;;;19.87;15.95;;;16.30;99.90;;;;;;1894336;76;21089;-72
2021/07/10 04:42:10;;;;;;;23.42;16.17;;;16.10;99.90;;;;;;1862207;75;21190;-72
2021/07/10 04:44:37;;;;;;;23.32;16.93;;;16.10;99.90;;;;;;1874494;75;21516;-71
2021/07/10 04:47:05;;;;;;;22.25;16.77;;;16.20;99.90;;;;;;1885434;74;21152;-72
2021/07/10 04:49:33;;;;;;;21.73;16.70;;;16.10;99.90;;;;;;1893576;74;21081;-71
2021/07/10 04:52:01;;;;;;;24.85;15.80;;;16.10;99.90;;;;;;1875885;75;21092;-71
2021/07/10 04:54:29;;;;;;;18.82;15.40;;;16.20;99.90;;;;;;1874306;75;21206;-71
2021/07/10 04:56:57;;;;;;;20.52;15.50;;;16.20;99.90;;;;;;1886295;74;21170;-71
2021/07/10 04:59:24;;;;;;;20.35;16.55;;;16.40;99.90;;;;;;1863182;75;21202;-70
2021/07/10 05:01:52;;;;;;;20.68;16.25;;;16.30;99.90;;;;;;1865657;75;21088;-70
2021/07/10 05:04:19;;;;;;;21.97;16.07;;;16.30;99.90;;;;;;1868846;75;21049;-71
2021/07/10 05:06:47;;;;;;;19.10;15.13;;;16.40;99.90;;;;;;1869722;75;21156;-71
2021/07/10 05:09:14;;;;;;;26.20;16.27;;;16.40;99.90;;;;;;1882749;75;21089;-71
2021/07/10 05:11:42;;;;;;;21.68;15.70;;;16.40;99.90;;;;;;1864702;75;21104;-70
2021/07/10 05:14:10;;;;;;;22.30;16.60;;;16.50;99.90;;;;;;1869395;75;21062;-69
2021/07/10 05:16:37;;;;;;;24.05;16.30;;;16.50;99.90;;;;;;1881228;74;21124;-71
2021/07/10 05:19:05;;;;;;;22.13;16.55;;;16.50;99.90;;;;;;1875649;75;21112;-71
2021/07/10 05:21:34;;;;;;;20.55;15.23;;;16.50;99.90;;;;;;1869134;75;21191;-71
2021/07/10 05:24:02;;;;;;;19.60;15.45;;;16.60;99.90;;;;;;1896695;75;21096;-71
2021/07/10 05:26:31;;;;;;;21.77;16.07;;;16.70;99.90;;;;;;1874558;75;21187;-71
2021/07/10 05:28:59;;;;;;;24.27;16.17;;;16.60;99.90;;;;;;1880774;75;21132;-69
2021/07/10 05:31:26;;;;;;;21.15;15.80;;;16.70;99.90;;;;;;1868595;75;21092;-71
2021/07/10 05:33:54;;;;;;;22.48;16.17;;;16.80;99.90;;;;;;1892855;75;21229;-71
2021/07/10 05:36:21;;;;;;;22.95;16.23;;;16.80;99.90;;;;;;1886165;74;22265;-71
2021/07/10 05:38:49;;;;;;;21.70;15.90;;;16.80;99.90;;;;;;1892760;75;21085;-71
2021/07/10 05:41:16;;;;;;;21.95;15.55;;;16.80;99.90;;;;;;1878710;75;21077;-71
2021/07/10 05:43:44;;;;;;;18.92;14.70;;;16.80;99.90;;;;;;1891558;75;21074;-71
2021/07/10 05:46:11;;;;;;;18.73;13.83;;;16.80;99.90;;;;;;1858442;75;21069;-70
2021/07/10 05:48:39;;;;;;;19.80;13.25;;;16.90;99.90;;;;;;1862147;75;21097;-71
2021/07/10 05:51:06;;;;;;;18.48;13.60;;;17.00;99.90;;;;;;1871523;75;21618;-70
2021/07/10 05:53:34;;;;;;;23.83;13.50;;;17.00;99.90;;;;;;1885840;75;21621;-71
2021/07/10 05:56:02;;;;;;;20.25;13.40;;;17.00;99.90;;;;;;1874478;74;21163;-70
2021/07/10 05:58:30;;;;;;;19.23;13.35;;;17.20;99.90;;;;;;1891571;75;21082;-71
2021/07/10 06:00:58;;;;;;;23.77;12.23;;;17.20;99.90;;;;;;1862144;75;21093;-71
2021/07/10 06:03:25;;;;;;;15.70;11.75;;;17.20;99.90;;;;;;1873422;75;21088;-70
2021/07/10 06:05:53;;;;;;;16.77;12.15;;;17.30;99.90;;;;;;1863807;75;21125;-70
2021/07/10 06:08:20;;;;;;;17.67;11.22;;;17.40;99.90;;;;;;1868107;74;21210;-71
2021/07/10 06:10:48;;;;;;;20.25;11.50;;;17.50;99.90;;;;;;1892839;75;21041;-71
2021/07/10 06:13:16;;;;;;;18.17;11.28;;;17.50;99.90;;;;;;1878962;75;21087;-71
2021/07/10 06:15:44;;;;;;;16.73;10.90;;;17.60;99.90;;;;;;1859507;75;21128;-71
2021/07/10 06:18:12;;;;;;;17.57;11.48;;;17.70;99.90;;;;;;1848844;76;21214;-70
2021/07/10 06:20:39;;;;;;;19.20;11.43;;;17.60;99.90;;;;;;1866414;75;21092;-70
2021/07/10 06:23:08;;;;;;;15.83;10.45;;;17.70;99.90;;;;;;1873438;75;21651;-70
2021/07/10 06:25:38;;;;;;;16.00;9.68;;;17.60;99.90;;;;;;1859858;75;21194;-70
2021/07/10 06:28:07;;;;;;;14.70;9.95;;;17.70;99.90;;;;;;1832841;75;21214;-70
2021/07/10 06:30:35;;;;;;;15.45;10.00;;;17.80;99.90;;;;;;1862003;75;21103;-69
2021/07/10 06:33:03;;;;;;;16.27;10.68;;;17.80;99.90;;;;;;1891637;75;21039;-69
2021/07/10 06:35:32;;;;;;;14.15;9.43;;;17.80;99.90;;;;;;1870804;74;21034;-69
2021/07/10 06:37:59;;;;;;;15.43;9.63;;;17.80;99.90;;;;;;1862968;76;21128;-70
2021/07/10 06:40:27;;;;;;;13.83;9.10;;;17.90;99.90;;;;;;1860143;75;21175;-71
2021/07/10 06:42:54;;;;;;;14.30;8.55;;;17.90;99.90;;;;;;1882865;74;21094;-70
2021/07/10 06:45:22;;;;;;;11.85;7.92;;;18.00;99.90;;;;;;1859707;75;21379;-70
2021/07/10 06:47:51;;;;;;;15.80;8.18;;;18.10;99.90;;;;;;1865838;75;21132;-70
2021/07/10 06:50:21;;;;;;;13.10;8.03;;;18.10;99.90;;;;;;1872881;75;21120;-71
2021/07/10 06:52:49;;;;;;;10.80;8.05;;;18.20;99.90;;;;;;1868160;75;21054;-71
2021/07/10 06:55:17;;;;;;;12.30;8.93;;;18.20;99.90;;;;;;1861247;75;21578;-71
2021/07/10 06:57:45;;;;;;;15.30;8.93;;;18.10;99.90;;;;;;1872193;75;21133;-70
2021/07/10 07:00:16;;;;;;;12.15;8.63;;;18.10;99.90;;;;;;1877374;75;21207;-71
2021/07/10 07:02:43;;;;;;;12.40;8.75;;;18.20;99.90;;;;;;1844219;77;21194;-70
2021/07/10 07:05:11;;;;;;;15.40;8.63;;;18.30;99.90;;;;;;1868071;75;21066;-70
2021/07/10 07:07:39;;;;;;;17.27;8.88;;;18.20;99.90;;;;;;1875445;74;21194;-71
2021/07/10 07:10:09;;;;;;;14.73;8.78;;;18.20;99.90;;;;;;1866058;75;21128;-71
2021/07/10 07:12:37;;;;;;;14.30;8.75;;;18.30;99.90;;;;;;1871246;75;21093;-71
2021/07/10 07:15:10;;;;;;;12.58;8.58;;;18.30;99.90;;;;;;1859574;75;21226;-71
2021/07/10 07:17:38;;;;;;;8.70;6.75;;;18.40;99.90;;;;;;1862951;75;21118;-71
2021/07/10 07:20:09;;;;;;;20.43;7.60;;;18.40;99.90;;;;;;1865050;75;21546;-71
2021/07/10 07:22:37;;;;;;;9.30;7.28;;;18.50;99.90;;;;;;1862562;75;21068;-71
2021/07/10 07:25:05;;;;;;;11.83;7.60;;;18.50;99.90;;;;;;1863107;75;21067;-70
2021/07/10 07:27:33;;;;;;;11.70;6.85;;;18.50;99.90;;;;;;1866442;75;21645;-71
2021/07/10 07:30:00;;;;;;;10.65;7.30;;;18.50;99.90;;;;;;1855666;75;21203;-70
2021/07/10 07:32:29;;;;;;;10.65;7.28;;;18.60;99.90;;;;;;1858671;75;21315;-72
2021/07/10 07:34:56;;;;;;;11.48;7.62;;;18.60;99.90;;;;;;1859469;75;21646;-74
2021/07/10 07:37:24;;;;;;;13.28;8.50;;;18.70;99.90;;;;;;1859138;75;21089;-69
2021/07/10 07:39:52;;;;;;;10.48;7.37;;;18.70;99.90;;;;;;1861191;75;21763;-70
2021/07/10 07:42:19;;;;;;;15.48;9.55;;;18.70;99.90;;;;;;1860648;75;21042;-73
2021/07/10 07:44:47;;;;;;;17.55;11.08;;;19.00;99.90;;;;;;1860398;75;21111;-73
2021/07/10 07:47:16;;;;;;;10.05;7.62;;;19.00;99.90;;;;;;1854867;75;21270;-73
2021/07/10 07:50:04;;;;;;;12.85;8.03;;;19.00;99.90;;;;;;1861692;75;21097;-75
2021/07/10 07:52:32;;;;;;;16.42;8.78;;;19.10;99.90;;;;;;1928085;72;21569;-74
2021/07/10 07:55:01;;;;;;;17.73;9.38;;;19.10;99.90;;;;;;1925823;73;21325;-67
2021/07/10 07:57:28;;;;;;;23.55;10.05;;;19.10;99.90;;;;;;1963535;72;21097;-73
2021/07/10 07:59:56;;;;;;;14.07;8.55;;;19.10;99.90;;;;;;1958489;72;21056;-71
2021/07/10 08:02:23;;;;;;;12.15;9.33;;;19.10;99.90;;;;;;1964814;71;21641;-70
2021/07/10 08:04:51;;;;;;;17.07;9.95;;;19.20;99.90;;;;;;1949330;72;21163;-71
2021/07/10 08:07:19;;;;;;;17.67;10.38;;;19.20;99.90;;;;;;1940584;74;21174;-71
2021/07/10 08:09:47;;;;;;;17.80;9.75;;;19.30;99.90;;;;;;1940500;74;21095;-70
2021/07/10 08:12:14;;;;;;;12.43;9.80;;;19.30;99.90;;;;;;1940168;74;21091;-71
2021/07/10 08:14:42;;;;;;;15.68;10.30;;;19.30;99.90;;;;;;1934088;74;21024;-70
2021/07/10 08:17:09;;;;;;;13.62;10.15;;;19.30;99.90;;;;;;1913159;73;21088;-71
2021/07/10 08:19:37;;;;;;;12.15;9.48;;;19.40;99.90;;;;;;1889837;76;21073;-71
2021/07/10 08:22:05;;;;;;;12.53;8.08;;;19.30;99.90;;;;;;1952392;73;21375;-71
2021/07/10 08:24:32;;;;;;;21.25;8.53;;;19.40;99.90;;;;;;1934204;73;21071;-70
2021/07/10 08:27:00;;;;;;;14.03;8.80;;;19.40;99.90;;;;;;1928887;74;21161;-71
2021/07/10 08:29:28;;;;;;;17.42;10.40;;;19.50;99.90;;;;;;1900659;74;21604;-71
2021/07/10 08:31:55;;;;;;;20.30;10.63;;;19.50;99.90;;;;;;1915138;73;21104;-71
2021/07/10 08:34:23;;;;;;;13.70;8.88;;;19.50;99.90;;;;;;1946687;72;21068;-71
2021/07/10 08:36:50;;;;;;;13.95;9.45;;;19.60;99.90;;;;;;1934266;73;21118;-71
2021/07/10 08:39:18;;;;;;;13.28;7.55;;;19.50;99.90;;;;;;1932379;73;21159;-71
2021/07/10 08:41:48;;;;;;;13.13;9.53;;;19.60;99.90;;;;;;1932583;73;21103;-71
2021/07/10 08:44:16;;;;;;;14.28;10.08;;;19.60;99.90;;;;;;1916397;74;21569;-71
2021/07/10 08:46:46;;;;;;;16.48;9.60;;;19.80;99.90;;;;;;1878675;75;21565;-70
2021/07/10 08:49:16;;;;;;;14.60;9.50;;;19.90;99.90;;;;;;1906164;73;21084;-70
2021/07/10 08:51:48;;;;;;;18.50;10.03;;;19.90;99.90;;;;;;1933829;74;21217;-70
2021/07/10 08:54:16;;;;;;;19.50;8.68;;;19.90;99.90;;;;;;1934037;74;21165;-70
2021/07/10 08:56:44;;;;;;;13.53;9.10;;;19.90;99.90;;;;;;1933951;74;21048;-71
2021/07/10 08:59:13;;;;;;;19.40;9.65;;;19.80;99.90;;;;;;1933401;74;21063;-71
2021/07/10 09:01:41;;;;;;;15.53;9.95;;;19.80;99.90;;;;;;1948954;72;21116;-70
2021/07/10 09:04:09;;;;;;;15.05;8.75;;;19.70;99.90;;;;;;1946118;72;21206;-72
2021/07/10 09:06:40;;;;;;;13.72;9.58;;;19.90;99.90;;;;;;1934395;74;21080;-72
2021/07/10 09:09:07;;;;;;;13.75;9.18;;;19.90;99.90;;;;;;1925085;73;22059;-72
2021/07/10 09:11:35;;;;;;;11.05;8.65;;;19.90;99.90;;;;;;1935073;73;21135;-71
2021/07/10 09:14:02;;;;;;;12.47;8.50;;;19.90;99.90;;;;;;1933171;73;21165;-75
2021/07/10 09:16:31;;;;;;;12.68;8.58;;;19.90;99.90;;;;;;1934342;73;21154;-76
2021/07/10 09:19:02;;;;;;;13.22;8.65;;;20.10;99.90;;;;;;1936647;73;21083;-77
2021/07/10 09:21:53;;;;;;;12.00;9.85;;;20.10;99.90;;;;;;1935315;72;21193;-79
2021/07/10 09:24:32;;;;;;;12.35;9.30;;;20.10;99.90;;;;;;1932963;73;21178;-75
2021/07/10 09:27:04;;;;;;;13.60;9.40;;;20.20;99.90;;;;;;1901716;73;21103;-75
2021/07/10 09:29:39;;;;;;;14.23;8.63;;;20.20;99.90;;;;;;1917252;73;21227;-76
2021/07/10 09:32:09;;;;;;;11.80;8.60;;;20.40;99.90;;;;;;1915265;73;21680;-77
2021/07/10 09:34:45;;;;;;;13.08;9.48;;;20.20;99.90;;;;;;1935876;73;21172;-74
2021/07/10 09:37:26;;;;;;;12.65;8.80;;;20.30;99.90;;;;;;1936276;73;21189;-77
2021/07/10 09:39:59;;;;;;;12.40;9.60;;;20.50;99.90;;;;;;1908458;73;21185;-75
2021/07/10 09:42:32;;;;;;;16.73;9.23;;;20.50;99.90;;;;;;1905492;73;21139;-75
2021/07/10 09:45:00;;;;;;;12.73;8.78;;;20.60;99.90;;;;;;1907646;74;21315;-79
2021/07/10 09:47:30;;;;;;;13.48;8.58;;;20.70;99.90;;;;;;1935296;73;21702;-78
2021/07/10 09:49:59;;;;;;;15.10;9.05;;;20.60;99.90;;;;;;1949152;72;21073;-76
2021/07/10 09:52:33;;;;;;;13.53;9.35;;;20.50;99.90;;;;;;1934277;73;21222;-73
2021/07/10 09:55:10;;;;;;;12.25;8.73;;;20.40;99.90;;;;;;1934179;74;21092;-73
2021/07/10 09:57:40;;;;;;;12.40;7.85;;;20.60;99.90;;;;;;1931560;73;21046;-73
2021/07/10 10:00:11;;;;;;;13.13;8.30;;;20.60;99.90;;;;;;1934679;72;21095;-75
2021/07/10 10:02:50;;;;;;;12.47;8.23;;;20.70;99.90;;;;;;1933851;73;21134;-71
2021/07/10 10:05:20;;;;;;;11.33;7.87;;;20.70;99.90;;;;;;1925278;73;21055;-72
2021/07/10 10:07:52;;;;;;;9.20;7.70;;;20.80;99.90;;;;;;1929491;73;21099;-75
2021/07/10 10:10:37;;;;;;;11.40;9.00;;;20.90;99.90;;;;;;1916729;74;21099;-77
2021/07/10 10:13:10;;;;;;;10.55;7.60;;;21.00;99.90;;;;;;1922432;73;21113;-76
2021/07/10 10:15:46;;;;;;;10.98;7.70;;;20.90;99.90;;;;;;1918982;73;21016;-76
2021/07/10 10:18:16;;;;;;;9.73;7.17;;;20.80;99.90;;;;;;1891373;73;21520;-75
2021/07/10 10:20:45;;;;;;;11.73;7.78;;;20.90;99.90;;;;;;1939902;73;21073;-75
2021/07/10 10:23:13;;;;;;;11.38;8.50;;;20.90;99.90;;;;;;1940705;73;21177;-78
2021/07/10 10:25:42;;;;;;;12.10;8.53;;;20.90;99.90;;;;;;1910061;72;21105;-76
2021/07/10 10:28:18;;;;;;;10.25;8.55;;;20.80;99.90;;;;;;1882766;73;21670;-76
2021/07/10 10:30:42;;;;;;;12.65;8.83;;;20.70;99.90;;;;;;1936315;73;21120;-74
2021/07/10 10:33:11;;;;;;;9.88;8.28;;;20.90;99.90;;;;;;1924618;73;21241;-74
2021/07/10 10:35:38;;;;;;;11.05;7.53;;;21.10;99.90;;;;;;1942357;73;21588;-75
2021/07/10 10:38:07;;;;;;;18.80;9.15;;;21.20;99.90;;;;;;1931952;73;21593;-74
2021/07/10 10:40:35;;;;;;;14.73;8.90;;;21.40;99.90;;;;;;1925585;73;21037;-74
2021/07/10 10:43:04;;;;;;;27.65;9.15;;;21.70;99.90;;;;;;1933482;73;21108;-74
2021/07/10 10:45:34;;;;;;;12.13;9.00;;;21.70;99.90;;;;;;1931586;73;21549;-73
2021/07/10 10:48:03;;;;;;;11.73;8.58;;;21.80;99.90;;;;;;1934271;73;21174;-74
2021/07/10 10:50:37;;;;;;;11.40;8.68;;;21.70;99.90;;;;;;1928930;73;21107;-74
2021/07/10 10:53:07;;;;;;;14.00;8.10;;;21.70;99.90;;;;;;1931627;73;21662;-74
2021/07/10 10:55:38;;;;;;;10.13;8.58;;;21.70;99.90;;;;;;1921225;73;21108;-74
2021/07/10 10:58:22;;;;;;;11.05;8.10;;;21.90;99.90;;;;;;1933465;73;21136;-76
2021/07/10 11:01:06;;;;;;;13.08;8.50;;;21.80;99.90;;;;;;1943160;73;21080;-77
2021/07/10 11:03:43;;;;;;;11.93;8.93;;;21.90;99.90;;;;;;1944855;73;21522;-76
2021/07/10 11:06:32;;;;;;;14.10;9.53;;;21.90;99.90;;;;;;1909569;73;21161;-77
2021/07/10 11:09:00;;;;;;;10.25;8.00;;;21.90;99.90;;;;;;1923613;73;21189;-75
2021/07/10 11:11:29;;;;;;;13.43;8.78;;;21.90;99.90;;;;;;1938266;73;21092;-76
2021/07/10 11:14:10;;;;;;;11.97;9.50;;;21.90;99.90;;;;;;1904832;73;21568;-75
2021/07/10 11:16:36;;;;;;;13.68;9.10;;;21.80;99.90;;;;;;1930084;73;21185;-75
2021/07/10 11:19:09;;;;;;;10.45;8.75;;;21.80;99.90;;;;;;1933958;73;21165;-76
2021/07/10 11:21:42;;;;;;;11.68;8.60;;;21.90;99.90;;;;;;1934064;73;21131;-74
2021/07/10 11:24:21;;;;;;;12.13;7.70;;;21.90;99.90;;;;;;1934962;73;21182;-74
2021/07/10 11:27:00;;;;;;;11.28;8.38;;;21.90;99.90;;;;;;1900708;75;21048;-74
2021/07/10 11:29:34;;;;;;;13.13;8.65;;;21.90;99.90;;;;;;1919575;73;21057;-75
2021/07/10 11:32:16;;;;;;;14.03;9.33;;;22.00;99.90;;;;;;1931829;73;21365;-75
2021/07/10 11:34:48;;;;;;;12.25;8.40;;;22.20;99.90;;;;;;1932020;73;21180;-75
2021/07/10 11:37:23;;;;;;;14.58;8.30;;;22.20;99.90;;;;;;1934750;73;21174;-76
2021/07/10 11:40:00;;;;;;;13.25;9.75;;;22.10;99.90;;;;;;1936689;73;21124;-74
2021/07/10 11:42:31;;;;;;;13.38;9.63;;;22.20;99.90;;;;;;1943501;72;21161;-72
2021/07/10 11:45:04;;;;;;;12.73;8.70;;;22.40;99.90;;;;;;1942597;72;21119;-73
2021/07/10 11:47:42;;;;;;;10.45;7.80;;;22.40;99.90;;;;;;1938735;73;21100;-72
2021/07/10 11:50:12;;;;;;;14.65;8.30;;;22.40;99.90;;;;;;1941187;73;21318;-73
2021/07/10 11:52:40;;;;;;;11.40;8.90;;;22.60;99.90;;;;;;1936324;73;21104;-73
2021/07/10 11:55:10;;;;;;;14.53;8.95;;;22.60;99.90;;;;;;1934883;73;21002;-72
2021/07/10 11:57:40;;;;;;;11.03;7.85;;;22.60;99.90;;;;;;1941212;72;21057;-73
2021/07/10 12:00:13;;;;;;;12.75;9.40;;;22.70;99.90;;;;;;1919196;73;21224;-73
2021/07/10 12:02:42;;;;;;;13.62;9.23;;;22.80;99.90;;;;;;1928598;73;21063;-72
2021/07/10 12:05:14;;;;;;;12.65;10.03;;;22.80;99.90;;;;;;1947365;73;21091;-72
2021/07/10 12:07:47;;;;;;;13.65;10.35;;;22.70;99.90;;;;;;1928829;73;21072;-72
2021/07/10 12:10:18;;;;;;;16.17;10.45;;;22.60;99.90;;;;;;1927531;73;21121;-72
2021/07/10 12:12:51;;;;;;;11.12;9.03;;;22.50;99.90;;;;;;1933117;73;21132;-73
2021/07/10 12:15:21;;;;;;;11.18;8.20;;;22.70;99.90;;;;;;1832224;75;21656;-73
2021/07/10 12:17:51;;;;;;;13.15;9.13;;;22.70;99.90;;;;;;1948127;72;21605;-73
2021/07/10 12:20:25;;;;;;;14.40;10.58;;;22.70;99.90;;;;;;1940562;73;21087;-74
2021/07/10 12:22:59;;;;;;;11.45;9.13;;;22.60;99.90;;;;;;1934822;72;21096;-74
2021/07/10 12:25:32;;;;;;;14.75;10.80;;;22.60;99.90;;;;;;1944032;72;21624;-76
2021/07/10 12:28:03;;;;;;;14.15;9.88;;;22.80;99.90;;;;;;1942879;73;21179;-76
2021/07/10 12:30:46;;;;;;;12.18;9.58;;;22.80;99.90;;;;;;1880944;74;21361;-77
2021/07/10 12:33:41;;;;;;;17.98;8.20;;;22.70;99.90;;;;;;1879764;74;21146;-75
2021/07/10 12:36:17;;;;;;;12.05;7.95;;;23.00;99.90;;;;;;1931266;72;21645;-78
2021/07/10 12:39:19;;;;;;;10.53;8.03;;;23.20;99.90;;;;;;1927393;73;21233;-76
2021/07/10 12:41:53;;;;;;;11.00;8.23;;;23.30;99.90;;;;;;1934768;73;21141;-72